createdAt,value
2016-11-20T00:00:17.989Z,86
2016-11-20T00:11:17.604Z,85.8
2016-11-20T00:22:17.359Z,85.6
2016-11-20T00:33:16.821Z,85.5
2016-11-20T00:44:17.485Z,85.8
2016-11-20T00:55:16.985Z,85.2
2016-11-20T01:06:16.794Z,84.9
2016-11-20T01:17:17.653Z,85.3
2016-11-20T01:28:17.345Z,85.1
2016-11-20T01:39:16.834Z,85.5
2016-11-20T01:50:17.595Z,85.9
2016-11-20T02:01:17.417Z,85.5
2016-11-20T02:12:16.990Z,87.3
2016-11-20T02:23:17.101Z,86.1
2016-11-20T02:34:17.258Z,85.9
2016-11-20T02:45:17.757Z,85.9
2016-11-20T02:56:17.385Z,86.1
2016-11-20T03:07:17.671Z,85.6
2016-11-20T03:18:17.526Z,85.9
2016-11-20T03:29:17.518Z,85.2
2016-11-20T03:40:17.262Z,85
2016-11-20T03:51:17.164Z,85
2016-11-20T04:02:17.204Z,84.6
2016-11-20T04:13:16.758Z,84.4
2016-11-20T04:24:16.618Z,83.9
2016-11-20T04:35:16.837Z,84
2016-11-20T04:46:17.423Z,83.6
2016-11-20T04:57:16.272Z,94.5
2016-11-20T05:08:16.843Z,79.7
2016-11-20T05:19:16.567Z,77.5
2016-11-20T05:30:17.633Z,77.3
2016-11-20T05:41:17.399Z,77.5
2016-11-20T05:52:17.370Z,77.8
2016-11-20T06:03:16.770Z,77.9
2016-11-20T06:14:17.629Z,78.3
2016-11-20T06:25:27.752Z,74.7
2016-11-20T06:36:16.620Z,77.9
2016-11-20T06:47:23.319Z,77.3
2016-11-20T06:58:17.407Z,77.8
2016-11-20T07:09:17.170Z,78.2
2016-11-20T07:20:17.614Z,78.2
2016-11-20T07:31:17.442Z,78.2
2016-11-20T07:42:16.944Z,78.3
2016-11-20T07:53:17.496Z,78.5
2016-11-20T08:04:17.140Z,78.5
2016-11-20T08:15:17.458Z,78.7
2016-11-20T08:26:17.120Z,78.4
2016-11-20T08:37:17.771Z,78.2
2016-11-20T08:48:17.510Z,77.9
2016-11-20T08:59:16.996Z,77.3
2016-11-20T09:10:17.193Z,77.2
2016-11-20T09:21:17.234Z,77.2
2016-11-20T09:32:17.640Z,77.4
2016-11-20T09:43:16.898Z,77.9
2016-11-20T09:54:16.825Z,78.3
2016-11-20T10:05:17.427Z,78.1
2016-11-20T10:16:16.722Z,79
2016-11-20T10:27:17.717Z,79
2016-11-20T10:38:17.472Z,79.6
2016-11-20T10:49:16.667Z,78.9
2016-11-20T11:00:17.395Z,78.8
2016-11-20T11:11:16.798Z,79.6
2016-11-20T11:22:16.559Z,79.4
2016-11-20T11:33:16.959Z,79.6
2016-11-20T11:44:16.916Z,288
2016-11-20T11:55:17.862Z,287.6
2016-11-20T12:06:17.194Z,289.2
2016-11-20T12:17:17.078Z,288
2016-11-20T12:28:17.321Z,288.5
2016-11-20T12:39:17.237Z,285.5
2016-11-20T12:50:17.624Z,285.1
2016-11-20T13:01:17.690Z,283.5
2016-11-20T13:12:17.011Z,282.5
2016-11-20T13:23:17.368Z,283.5
2016-11-20T13:34:17.146Z,284.6
2016-11-20T13:45:17.251Z,284.9
2016-11-20T13:56:17.257Z,284.8
2016-11-20T14:07:17.889Z,284.2
2016-11-20T14:18:17.311Z,284.8
2016-11-20T14:29:17.305Z,284.9
2016-11-20T14:40:17.362Z,284.8
2016-11-20T14:51:17.111Z,284.9
2016-11-20T15:02:17.034Z,284.5
2016-11-20T15:13:17.046Z,285
2016-11-20T15:24:17.296Z,284.8
2016-11-20T15:35:17.289Z,284.8
2016-11-20T15:46:17.033Z,282.4
2016-11-20T15:57:17.001Z,282.4
2016-11-20T16:08:17.262Z,282
2016-11-20T16:19:16.699Z,281.7
2016-11-20T16:30:17.557Z,282.8
2016-11-20T16:41:17.210Z,282.2
2016-11-20T16:52:16.956Z,281.4
2016-11-20T17:03:17.062Z,281.3
2016-11-20T17:14:16.668Z,281.4
2016-11-20T17:25:17.462Z,282.6
2016-11-20T17:36:16.967Z,281.8
2016-11-20T17:47:16.849Z,282.7
2016-11-20T17:58:17.054Z,282.8
2016-11-20T18:09:17.134Z,282.1
2016-11-20T18:20:17.556Z,282.3
2016-11-20T18:31:17.333Z,281.8
2016-11-20T18:42:17.293Z,282.7
2016-11-20T18:53:16.635Z,282.8
2016-11-20T19:04:17.478Z,282.7
2016-11-20T19:15:17.130Z,282.6
2016-11-20T19:26:17.686Z,281.9
2016-11-20T19:37:17.377Z,281
2016-11-20T19:48:17.807Z,282.4
2016-11-20T19:59:16.934Z,282.2
2016-11-20T20:10:17.363Z,282.7
2016-11-20T20:21:17.148Z,282.2
2016-11-20T20:32:17.057Z,282.5
2016-11-20T20:43:17.373Z,282.6
2016-11-20T20:54:17.570Z,282.4
2016-11-20T21:05:16.639Z,282.3
2016-11-20T21:16:16.944Z,282.1
2016-11-20T21:27:17.548Z,282.6
2016-11-20T21:38:16.952Z,282.8
2016-11-20T21:49:17.348Z,282.2
2016-11-20T22:00:17.161Z,281.5
2016-11-20T22:11:16.670Z,282
2016-11-20T22:22:17.144Z,282.2
2016-11-20T22:33:16.943Z,282.7
2016-11-20T22:44:17.176Z,282.1
2016-11-20T22:55:17.343Z,282
2016-11-20T23:06:18.044Z,282.7
2016-11-20T23:17:17.559Z,282.5
2016-11-20T23:28:17.467Z,281.9
2016-11-20T23:39:17.949Z,279.8
2016-11-20T23:50:17.685Z,278.6
